sensor_id;sensor_type;location;lat;lon;timestamp;P1;durP1;ratioP1;P2;durP2;ratioP2
1062;SDS011;520;50.932;6.962;2023-02-28T00:02:22;2.13;;;1.93;;
1062;SDS011;520;50.932;6.962;2023-02-28T00:05:07;2.00;;;1.80;;
1062;SDS011;520;50.932;6.962;2023-02-28T00:07:43;2.40;;;2.03;;
1062;SDS011;520;50.932;6.962;2023-02-28T00:10:34;3.83;;;1.93;;
1062;SDS011;520;50.932;6.962;2023-02-28T00:13:08;3.50;;;1.80;;
1062;SDS011;520;50.932;6.962;2023-02-28T00:16:05;3.53;;;2.50;;
1062;SDS011;520;50.932;6.962;2023-02-28T00:18:45;2.77;;;2.30;;
1062;SDS011;520;50.932;6.962;2023-02-28T00:21:24;4.10;;;2.67;;
1062;SDS011;520;50.932;6.962;2023-02-28T00:23:58;2.70;;;1.83;;
1062;SDS011;520;50.932;6.962;2023-02-28T00:26:29;2.53;;;1.80;;
1062;SDS011;520;50.932;6.962;2023-02-28T00:29:07;3.40;;;2.40;;
1062;SDS011;520;50.932;6.962;2023-02-28T00:31:38;4.37;;;2.70;;
1062;SDS011;520;50.932;6.962;2023-02-28T00:34:20;1.80;;;1.70;;
1062;SDS011;520;50.932;6.962;2023-02-28T00:37:21;2.77;;;2.50;;
1062;SDS011;520;50.932;6.962;2023-02-28T00:39:53;2.63;;;2.30;;
1062;SDS011;520;50.932;6.962;2023-02-28T00:42:33;3.90;;;2.17;;
1062;SDS011;520;50.932;6.962;2023-02-28T00:45:08;2.47;;;2.00;;
1062;SDS011;520;50.932;6.962;2023-02-28T00:47:41;2.53;;;1.93;;
1062;SDS011;520;50.932;6.962;2023-02-28T00:50:42;2.47;;;1.80;;
1062;SDS011;520;50.932;6.962;2023-02-28T00:53:22;3.70;;;2.03;;
1062;SDS011;520;50.932;6.962;2023-02-28T00:55:55;4.80;;;1.87;;
1062;SDS011;520;50.932;6.962;2023-02-28T00:58:25;2.00;;;1.90;;
1062;SDS011;520;50.932;6.962;2023-02-28T01:00:55;2.33;;;2.10;;
1062;SDS011;520;50.932;6.962;2023-02-28T01:03:41;1.90;;;1.70;;
1062;SDS011;520;50.932;6.962;2023-02-28T01:06:14;3.87;;;2.20;;
1062;SDS011;520;50.932;6.962;2023-02-28T01:09:06;4.30;;;2.17;;
1062;SDS011;520;50.932;6.962;2023-02-28T01:11:42;2.10;;;1.90;;
1062;SDS011;520;50.932;6.962;2023-02-28T01:17:11;2.60;;;1.60;;
1062;SDS011;520;50.932;6.962;2023-02-28T01:19:46;4.87;;;2.37;;
1062;SDS011;520;50.932;6.962;2023-02-28T01:22:21;3.13;;;1.80;;
1062;SDS011;520;50.932;6.962;2023-02-28T01:24:48;2.87;;;2.23;;
1062;SDS011;520;50.932;6.962;2023-02-28T01:27:20;1.83;;;1.73;;
1062;SDS011;520;50.932;6.962;2023-02-28T01:30:02;2.33;;;1.93;;
1062;SDS011;520;50.932;6.962;2023-02-28T01:32:38;6.90;;;3.27;;
1062;SDS011;520;50.932;6.962;2023-02-28T01:35:08;3.53;;;2.43;;
1062;SDS011;520;50.932;6.962;2023-02-28T01:37:44;2.17;;;1.87;;
1062;SDS011;520;50.932;6.962;2023-02-28T01:40:16;5.40;;;2.40;;
1062;SDS011;520;50.932;6.962;2023-02-28T01:43:22;3.60;;;1.83;;
1062;SDS011;520;50.932;6.962;2023-02-28T01:46:20;2.10;;;1.90;;
1062;SDS011;520;50.932;6.962;2023-02-28T01:49:09;1.70;;;1.60;;
1062;SDS011;520;50.932;6.962;2023-02-28T01:51:56;3.00;;;2.37;;
1062;SDS011;520;50.932;6.962;2023-02-28T01:54:29;4.13;;;2.67;;
1062;SDS011;520;50.932;6.962;2023-02-28T01:57:03;2.90;;;2.60;;
1062;SDS011;520;50.932;6.962;2023-02-28T01:59:38;2.80;;;1.90;;
1062;SDS011;520;50.932;6.962;2023-02-28T02:02:26;4.03;;;2.30;;
1062;SDS011;520;50.932;6.962;2023-02-28T02:05:06;2.10;;;1.90;;
1062;SDS011;520;50.932;6.962;2023-02-28T02:07:48;4.93;;;2.20;;
1062;SDS011;520;50.932;6.962;2023-02-28T02:10:46;2.40;;;2.20;;
1062;SDS011;520;50.932;6.962;2023-02-28T02:16:34;2.40;;;2.07;;
1062;SDS011;520;50.932;6.962;2023-02-28T02:19:41;1.77;;;1.67;;
1062;SDS011;520;50.932;6.962;2023-02-28T02:25:32;2.80;;;1.87;;
1062;SDS011;520;50.932;6.962;2023-02-28T02:31:51;3.53;;;2.03;;
1062;SDS011;520;50.932;6.962;2023-02-28T02:37:14;3.70;;;2.07;;
1062;SDS011;520;50.932;6.962;2023-02-28T02:43:24;3.13;;;2.10;;
1062;SDS011;520;50.932;6.962;2023-02-28T02:45:59;2.53;;;2.00;;
1062;SDS011;520;50.932;6.962;2023-02-28T02:48:33;2.20;;;2.00;;
1062;SDS011;520;50.932;6.962;2023-02-28T02:51:21;2.70;;;2.13;;
1062;SDS011;520;50.932;6.962;2023-02-28T02:54:15;2.37;;;2.17;;
1062;SDS011;520;50.932;6.962;2023-02-28T02:56:50;2.10;;;1.83;;
1062;SDS011;520;50.932;6.962;2023-02-28T02:59:27;2.47;;;2.10;;
1062;SDS011;520;50.932;6.962;2023-02-28T03:02:04;2.80;;;1.93;;
1062;SDS011;520;50.932;6.962;2023-02-28T03:04:46;2.63;;;1.97;;
1062;SDS011;520;50.932;6.962;2023-02-28T03:07:20;2.10;;;1.90;;
1062;SDS011;520;50.932;6.962;2023-02-28T03:09:50;2.10;;;1.80;;
1062;SDS011;520;50.932;6.962;2023-02-28T03:12:28;2.30;;;1.87;;
1062;SDS011;520;50.932;6.962;2023-02-28T03:15:30;2.17;;;1.97;;
1062;SDS011;520;50.932;6.962;2023-02-28T03:18:24;3.17;;;1.67;;
1062;SDS011;520;50.932;6.962;2023-02-28T03:21:22;2.53;;;2.10;;
1062;SDS011;520;50.932;6.962;2023-02-28T03:24:16;2.00;;;1.90;;
1062;SDS011;520;50.932;6.962;2023-02-28T03:27:11;1.83;;;1.73;;
1062;SDS011;520;50.932;6.962;2023-02-28T03:29:48;2.03;;;1.93;;
1062;SDS011;520;50.932;6.962;2023-02-28T03:32:38;2.33;;;2.10;;
1062;SDS011;520;50.932;6.962;2023-02-28T03:35:16;2.47;;;2.00;;
1062;SDS011;520;50.932;6.962;2023-02-28T03:37:55;2.97;;;2.40;;
1062;SDS011;520;50.932;6.962;2023-02-28T03:40:33;2.30;;;1.90;;
1062;SDS011;520;50.932;6.962;2023-02-28T03:43:07;2.80;;;2.20;;
1062;SDS011;520;50.932;6.962;2023-02-28T03:45:43;1.93;;;1.80;;
1062;SDS011;520;50.932;6.962;2023-02-28T03:48:16;3.17;;;2.67;;
1062;SDS011;520;50.932;6.962;2023-02-28T03:50:54;3.40;;;2.23;;
1062;SDS011;520;50.932;6.962;2023-02-28T03:53:32;2.13;;;2.00;;
1062;SDS011;520;50.932;6.962;2023-02-28T03:59:02;2.10;;;1.90;;
1062;SDS011;520;50.932;6.962;2023-02-28T04:01:47;3.30;;;2.37;;
1062;SDS011;520;50.932;6.962;2023-02-28T04:04:34;2.03;;;1.80;;
1062;SDS011;520;50.932;6.962;2023-02-28T04:07:14;2.13;;;1.93;;
1062;SDS011;520;50.932;6.962;2023-02-28T04:09:51;2.43;;;2.23;;
1062;SDS011;520;50.932;6.962;2023-02-28T04:12:24;2.53;;;2.13;;
1062;SDS011;520;50.932;6.962;2023-02-28T04:14:54;3.30;;;1.93;;
1062;SDS011;520;50.932;6.962;2023-02-28T04:17:25;2.40;;;2.07;;
1062;SDS011;520;50.932;6.962;2023-02-28T04:19:52;2.10;;;1.90;;
1062;SDS011;520;50.932;6.962;2023-02-28T04:22:24;5.10;;;2.20;;
1062;SDS011;520;50.932;6.962;2023-02-28T04:25:00;3.90;;;2.30;;
1062;SDS011;520;50.932;6.962;2023-02-28T04:27:33;3.13;;;2.27;;
1062;SDS011;520;50.932;6.962;2023-02-28T04:30:09;2.57;;;2.37;;
1062;SDS011;520;50.932;6.962;2023-02-28T04:32:42;2.63;;;2.43;;
1062;SDS011;520;50.932;6.962;2023-02-28T04:35:38;2.33;;;2.13;;
1062;SDS011;520;50.932;6.962;2023-02-28T04:38:12;2.33;;;2.07;;
1062;SDS011;520;50.932;6.962;2023-02-28T04:40:47;2.10;;;2.00;;
1062;SDS011;520;50.932;6.962;2023-02-28T04:43:24;2.47;;;2.27;;
1062;SDS011;520;50.932;6.962;2023-02-28T04:45:56;3.33;;;2.03;;
1062;SDS011;520;50.932;6.962;2023-02-28T04:48:40;4.57;;;2.23;;
1062;SDS011;520;50.932;6.962;2023-02-28T04:51:23;3.03;;;2.17;;
1062;SDS011;520;50.932;6.962;2023-02-28T04:54:16;1.90;;;1.80;;
1062;SDS011;520;50.932;6.962;2023-02-28T05:02:19;2.13;;;2.03;;
1062;SDS011;520;50.932;6.962;2023-02-28T05:05:00;3.07;;;2.23;;
1062;SDS011;520;50.932;6.962;2023-02-28T05:07:33;2.73;;;2.00;;
1062;SDS011;520;50.932;6.962;2023-02-28T05:10:21;3.10;;;2.33;;
1062;SDS011;520;50.932;6.962;2023-02-28T05:12:55;2.20;;;1.87;;
1062;SDS011;520;50.932;6.962;2023-02-28T05:15:30;2.27;;;2.07;;
1062;SDS011;520;50.932;6.962;2023-02-28T05:18:17;3.13;;;2.20;;
1062;SDS011;520;50.932;6.962;2023-02-28T05:20:53;4.50;;;2.40;;
1062;SDS011;520;50.932;6.962;2023-02-28T05:23:33;4.80;;;2.93;;
1062;SDS011;520;50.932;6.962;2023-02-28T05:26:20;2.90;;;2.70;;
1062;SDS011;520;50.932;6.962;2023-02-28T05:28:51;2.97;;;2.10;;
1062;SDS011;520;50.932;6.962;2023-02-28T05:31:56;2.63;;;2.43;;
1062;SDS011;520;50.932;6.962;2023-02-28T05:34:55;3.73;;;2.47;;
1062;SDS011;520;50.932;6.962;2023-02-28T05:37:48;2.37;;;2.17;;
1062;SDS011;520;50.932;6.962;2023-02-28T05:40:35;2.70;;;2.50;;
1062;SDS011;520;50.932;6.962;2023-02-28T05:43:22;2.93;;;2.57;;
1062;SDS011;520;50.932;6.962;2023-02-28T05:46:16;3.10;;;2.10;;
1062;SDS011;520;50.932;6.962;2023-02-28T05:48:54;2.43;;;2.10;;
1062;SDS011;520;50.932;6.962;2023-02-28T05:51:51;2.90;;;2.70;;
1062;SDS011;520;50.932;6.962;2023-02-28T05:54:36;2.33;;;2.13;;
1062;SDS011;520;50.932;6.962;2023-02-28T05:57:14;2.63;;;2.03;;
1062;SDS011;520;50.932;6.962;2023-02-28T05:59:50;3.33;;;2.47;;
1062;SDS011;520;50.932;6.962;2023-02-28T06:02:25;2.27;;;2.07;;
1062;SDS011;520;50.932;6.962;2023-02-28T06:05:07;3.20;;;2.93;;
1062;SDS011;520;50.932;6.962;2023-02-28T06:08:01;2.30;;;2.20;;
1062;SDS011;520;50.932;6.962;2023-02-28T06:11:02;2.30;;;2.10;;
1062;SDS011;520;50.932;6.962;2023-02-28T06:14:17;2.43;;;2.23;;
1062;SDS011;520;50.932;6.962;2023-02-28T06:20:25;2.60;;;2.40;;
1062;SDS011;520;50.932;6.962;2023-02-28T06:23:34;3.07;;;2.60;;
1062;SDS011;520;50.932;6.962;2023-02-28T06:26:14;2.70;;;2.50;;
1062;SDS011;520;50.932;6.962;2023-02-28T06:28:52;4.40;;;2.23;;
1062;SDS011;520;50.932;6.962;2023-02-28T06:31:37;2.47;;;2.27;;
1062;SDS011;520;50.932;6.962;2023-02-28T06:34:36;4.70;;;3.40;;
1062;SDS011;520;50.932;6.962;2023-02-28T06:37:27;2.70;;;2.50;;
1062;SDS011;520;50.932;6.962;2023-02-28T06:40:27;2.63;;;2.40;;
1062;SDS011;520;50.932;6.962;2023-02-28T06:43:07;2.63;;;2.40;;
1062;SDS011;520;50.932;6.962;2023-02-28T06:46:32;3.40;;;2.67;;
1062;SDS011;520;50.932;6.962;2023-02-28T06:49:15;4.53;;;2.90;;
1062;SDS011;520;50.932;6.962;2023-02-28T06:51:53;2.70;;;2.53;;
1062;SDS011;520;50.932;6.962;2023-02-28T06:54:39;3.43;;;2.63;;
1062;SDS011;520;50.932;6.962;2023-02-28T06:57:16;2.67;;;2.47;;
1062;SDS011;520;50.932;6.962;2023-02-28T07:00:02;2.73;;;1.90;;
1062;SDS011;520;50.932;6.962;2023-02-28T07:02:39;2.80;;;2.27;;
1062;SDS011;520;50.932;6.962;2023-02-28T07:05:20;4.30;;;2.40;;
1062;SDS011;520;50.932;6.962;2023-02-28T07:08:37;2.37;;;2.17;;
1062;SDS011;520;50.932;6.962;2023-02-28T07:11:15;3.07;;;2.40;;
1062;SDS011;520;50.932;6.962;2023-02-28T07:13:45;2.77;;;2.50;;
1062;SDS011;520;50.932;6.962;2023-02-28T07:16:44;3.10;;;2.57;;
1062;SDS011;520;50.932;6.962;2023-02-28T07:19:31;3.47;;;2.83;;
1062;SDS011;520;50.932;6.962;2023-02-28T07:22:43;3.53;;;3.27;;
1062;SDS011;520;50.932;6.962;2023-02-28T07:28:30;2.50;;;2.30;;
1062;SDS011;520;50.932;6.962;2023-02-28T07:31:06;2.50;;;2.30;;
1062;SDS011;520;50.932;6.962;2023-02-28T07:33:49;8.63;;;2.53;;
1062;SDS011;520;50.932;6.962;2023-02-28T07:36:33;3.13;;;2.50;;
1062;SDS011;520;50.932;6.962;2023-02-28T07:39:24;5.90;;;3.33;;
1062;SDS011;520;50.932;6.962;2023-02-28T07:42:25;2.73;;;2.53;;
1062;SDS011;520;50.932;6.962;2023-02-28T07:45:21;2.50;;;2.30;;
1062;SDS011;520;50.932;6.962;2023-02-28T07:51:05;2.57;;;2.37;;
1062;SDS011;520;50.932;6.962;2023-02-28T07:54:11;2.67;;;2.47;;
1062;SDS011;520;50.932;6.962;2023-02-28T07:57:13;2.90;;;2.70;;
1062;SDS011;520;50.932;6.962;2023-02-28T08:00:02;2.70;;;2.50;;
1062;SDS011;520;50.932;6.962;2023-02-28T08:03:00;4.10;;;2.70;;
1062;SDS011;520;50.932;6.962;2023-02-28T08:05:41;2.60;;;2.40;;
1062;SDS011;520;50.932;6.962;2023-02-28T08:08:36;2.73;;;2.50;;
1062;SDS011;520;50.932;6.962;2023-02-28T08:11:37;5.80;;;4.30;;
1062;SDS011;520;50.932;6.962;2023-02-28T08:14:15;2.57;;;2.10;;
1062;SDS011;520;50.932;6.962;2023-02-28T08:17:13;2.17;;;2.00;;
1062;SDS011;520;50.932;6.962;2023-02-28T08:20:08;3.33;;;2.50;;
1062;SDS011;520;50.932;6.962;2023-02-28T08:22:43;1.90;;;1.80;;
1062;SDS011;520;50.932;6.962;2023-02-28T08:25:29;2.03;;;1.87;;
1062;SDS011;520;50.932;6.962;2023-02-28T08:28:24;4.37;;;2.27;;
1062;SDS011;520;50.932;6.962;2023-02-28T08:31:55;2.53;;;1.73;;
1062;SDS011;520;50.932;6.962;2023-02-28T08:35:05;3.43;;;1.67;;
1062;SDS011;520;50.932;6.962;2023-02-28T08:37:42;2.23;;;1.77;;
1062;SDS011;520;50.932;6.962;2023-02-28T08:40:14;1.53;;;1.43;;
1062;SDS011;520;50.932;6.962;2023-02-28T08:42:54;1.83;;;1.70;;
1062;SDS011;520;50.932;6.962;2023-02-28T08:45:25;1.67;;;1.57;;
1062;SDS011;520;50.932;6.962;2023-02-28T08:48:05;2.10;;;1.63;;
1062;SDS011;520;50.932;6.962;2023-02-28T08:50:41;2.60;;;1.90;;
1062;SDS011;520;50.932;6.962;2023-02-28T08:53:32;1.50;;;1.40;;
1062;SDS011;520;50.932;6.962;2023-02-28T08:56:15;3.13;;;1.83;;
1062;SDS011;520;50.932;6.962;2023-02-28T08:58:50;1.10;;;1.10;;
1062;SDS011;520;50.932;6.962;2023-02-28T09:01:29;1.60;;;1.50;;
1062;SDS011;520;50.932;6.962;2023-02-28T09:04:14;1.47;;;1.37;;
1062;SDS011;520;50.932;6.962;2023-02-28T09:06:59;2.93;;;1.10;;
1062;SDS011;520;50.932;6.962;2023-02-28T09:09:40;1.50;;;1.40;;
1062;SDS011;520;50.932;6.962;2023-02-28T09:12:25;1.70;;;1.60;;
1062;SDS011;520;50.932;6.962;2023-02-28T09:15:28;1.90;;;1.43;;
1062;SDS011;520;50.932;6.962;2023-02-28T09:18:16;1.40;;;1.20;;
1062;SDS011;520;50.932;6.962;2023-02-28T09:20:45;1.63;;;1.30;;
1062;SDS011;520;50.932;6.962;2023-02-28T09:23:12;1.00;;;1.00;;
1062;SDS011;520;50.932;6.962;2023-02-28T09:25:49;1.83;;;1.73;;
1062;SDS011;520;50.932;6.962;2023-02-28T09:28:30;1.80;;;1.70;;
1062;SDS011;520;50.932;6.962;2023-02-28T09:31:38;1.80;;;1.47;;
1062;SDS011;520;50.932;6.962;2023-02-28T09:37:33;1.77;;;1.60;;
1062;SDS011;520;50.932;6.962;2023-02-28T09:43:42;1.17;;;1.07;;
1062;SDS011;520;50.932;6.962;2023-02-28T09:49:34;1.40;;;1.30;;
1062;SDS011;520;50.932;6.962;2023-02-28T09:52:32;1.20;;;1.10;;
1062;SDS011;520;50.932;6.962;2023-02-28T09:55:45;0.97;;;0.97;;
1062;SDS011;520;50.932;6.962;2023-02-28T10:06:09;2.43;;;1.63;;
1062;SDS011;520;50.932;6.962;2023-02-28T10:12:10;2.33;;;1.80;;
1062;SDS011;520;50.932;6.962;2023-02-28T10:15:48;2.33;;;1.50;;
1062;SDS011;520;50.932;6.962;2023-02-28T10:21:59;1.80;;;1.70;;
1062;SDS011;520;50.932;6.962;2023-02-28T10:32:05;1.80;;;1.70;;
1062;SDS011;520;50.932;6.962;2023-02-28T10:39:36;1.63;;;1.53;;
1062;SDS011;520;50.932;6.962;2023-02-28T10:42:34;2.00;;;1.90;;
1062;SDS011;520;50.932;6.962;2023-02-28T10:46:16;1.77;;;1.67;;
1062;SDS011;520;50.932;6.962;2023-02-28T10:49:40;2.50;;;2.30;;
1062;SDS011;520;50.932;6.962;2023-02-28T10:52:49;2.10;;;1.93;;
1062;SDS011;520;50.932;6.962;2023-02-28T10:59:00;2.40;;;1.67;;
1062;SDS011;520;50.932;6.962;2023-02-28T11:02:09;1.70;;;1.60;;
1062;SDS011;520;50.932;6.962;2023-02-28T11:05:48;7.93;;;5.73;;
1062;SDS011;520;50.932;6.962;2023-02-28T11:08:33;3.70;;;1.80;;
1062;SDS011;520;50.932;6.962;2023-02-28T11:14:36;2.40;;;2.17;;
1062;SDS011;520;50.932;6.962;2023-02-28T11:21:15;3.20;;;2.20;;
1062;SDS011;520;50.932;6.962;2023-02-28T11:29:57;1.67;;;1.57;;
1062;SDS011;520;50.932;6.962;2023-02-28T11:32:48;1.80;;;1.70;;
1062;SDS011;520;50.932;6.962;2023-02-28T11:35:36;2.13;;;1.87;;
1062;SDS011;520;50.932;6.962;2023-02-28T11:38:11;2.70;;;2.40;;
1062;SDS011;520;50.932;6.962;2023-02-28T11:43:55;2.53;;;2.33;;
1062;SDS011;520;50.932;6.962;2023-02-28T11:50:40;2.07;;;1.90;;
1062;SDS011;520;50.932;6.962;2023-02-28T12:01:14;1.90;;;1.80;;
1062;SDS011;520;50.932;6.962;2023-02-28T12:20:22;3.07;;;2.33;;
1062;SDS011;520;50.932;6.962;2023-02-28T12:26:27;2.87;;;2.67;;
1062;SDS011;520;50.932;6.962;2023-02-28T12:32:59;2.50;;;2.30;;
1062;SDS011;520;50.932;6.962;2023-02-28T12:36:04;2.93;;;2.63;;
1062;SDS011;520;50.932;6.962;2023-02-28T12:42:35;2.23;;;2.13;;
1062;SDS011;520;50.932;6.962;2023-02-28T12:58:57;2.57;;;2.47;;
1062;SDS011;520;50.932;6.962;2023-02-28T13:05:54;3.93;;;2.70;;
1062;SDS011;520;50.932;6.962;2023-02-28T13:09:18;2.93;;;2.67;;
1062;SDS011;520;50.932;6.962;2023-02-28T14:07:03;3.10;;;2.80;;
1062;SDS011;520;50.932;6.962;2023-02-28T14:10:15;2.90;;;2.70;;
1062;SDS011;520;50.932;6.962;2023-02-28T14:20:43;3.00;;;2.80;;
1062;SDS011;520;50.932;6.962;2023-02-28T14:27:37;3.17;;;2.70;;
1062;SDS011;520;50.932;6.962;2023-02-28T14:40:52;3.00;;;2.80;;
1062;SDS011;520;50.932;6.962;2023-02-28T14:43:33;4.13;;;3.63;;
1062;SDS011;520;50.932;6.962;2023-02-28T14:46:39;3.23;;;2.93;;
1062;SDS011;520;50.932;6.962;2023-02-28T14:52:39;3.30;;;3.07;;
1062;SDS011;520;50.932;6.962;2023-02-28T14:56:17;3.80;;;3.50;;
1062;SDS011;520;50.932;6.962;2023-02-28T15:02:29;3.00;;;2.70;;
1062;SDS011;520;50.932;6.962;2023-02-28T15:05:38;3.50;;;3.20;;
1062;SDS011;520;50.932;6.962;2023-02-28T15:15:59;3.17;;;2.97;;
1062;SDS011;520;50.932;6.962;2023-02-28T15:25:54;4.00;;;3.60;;
1062;SDS011;520;50.932;6.962;2023-02-28T15:29:28;4.03;;;3.00;;
1062;SDS011;520;50.932;6.962;2023-02-28T15:32:36;5.20;;;4.57;;
1062;SDS011;520;50.932;6.962;2023-02-28T15:36:10;3.30;;;3.00;;
1062;SDS011;520;50.932;6.962;2023-02-28T15:39:03;3.10;;;2.80;;
1062;SDS011;520;50.932;6.962;2023-02-28T15:42:28;3.13;;;2.93;;
1062;SDS011;520;50.932;6.962;2023-02-28T15:55:31;3.30;;;2.93;;
1062;SDS011;520;50.932;6.962;2023-02-28T16:08:12;3.50;;;3.20;;
1062;SDS011;520;50.932;6.962;2023-02-28T16:11:07;3.47;;;3.20;;
1062;SDS011;520;50.932;6.962;2023-02-28T16:13:55;3.50;;;3.20;;
1062;SDS011;520;50.932;6.962;2023-02-28T16:16:44;3.70;;;2.90;;
1062;SDS011;520;50.932;6.962;2023-02-28T16:19:28;3.27;;;3.07;;
1062;SDS011;520;50.932;6.962;2023-02-28T16:22:07;4.53;;;3.50;;
1062;SDS011;520;50.932;6.962;2023-02-28T16:24:45;3.13;;;2.70;;
1062;SDS011;520;50.932;6.962;2023-02-28T16:27:44;2.70;;;2.50;;
1062;SDS011;520;50.932;6.962;2023-02-28T16:30:28;3.43;;;2.97;;
1062;SDS011;520;50.932;6.962;2023-02-28T16:33:25;5.60;;;3.07;;
1062;SDS011;520;50.932;6.962;2023-02-28T16:40:00;2.90;;;2.70;;
1062;SDS011;520;50.932;6.962;2023-02-28T16:43:04;3.00;;;2.73;;
1062;SDS011;520;50.932;6.962;2023-02-28T16:49:32;3.50;;;3.20;;
1062;SDS011;520;50.932;6.962;2023-02-28T16:52:16;2.93;;;2.73;;
1062;SDS011;520;50.932;6.962;2023-02-28T17:25:17;4.10;;;3.07;;
1062;SDS011;520;50.932;6.962;2023-02-28T18:20:04;4.17;;;3.43;;
1062;SDS011;520;50.932;6.962;2023-02-28T18:31:09;4.13;;;3.00;;
1062;SDS011;520;50.932;6.962;2023-02-28T18:39:12;4.60;;;4.17;;
1062;SDS011;520;50.932;6.962;2023-02-28T18:50:06;5.67;;;3.73;;
1062;SDS011;520;50.932;6.962;2023-02-28T18:52:53;4.60;;;4.20;;
1062;SDS011;520;50.932;6.962;2023-02-28T18:55:40;4.13;;;3.73;;
1062;SDS011;520;50.932;6.962;2023-02-28T18:58:17;8.20;;;4.97;;
1062;SDS011;520;50.932;6.962;2023-02-28T19:00:53;4.93;;;4.53;;
1062;SDS011;520;50.932;6.962;2023-02-28T19:03:43;5.17;;;4.60;;
1062;SDS011;520;50.932;6.962;2023-02-28T19:06:19;6.90;;;4.97;;
1062;SDS011;520;50.932;6.962;2023-02-28T19:09:50;5.03;;;4.63;;
1062;SDS011;520;50.932;6.962;2023-02-28T19:12:36;5.00;;;4.60;;
1062;SDS011;520;50.932;6.962;2023-02-28T19:15:13;4.73;;;4.23;;
1062;SDS011;520;50.932;6.962;2023-02-28T19:17:57;6.10;;;5.03;;
1062;SDS011;520;50.932;6.962;2023-02-28T19:20:43;5.73;;;4.50;;
1062;SDS011;520;50.932;6.962;2023-02-28T19:26:41;6.40;;;5.27;;
1062;SDS011;520;50.932;6.962;2023-02-28T19:32:55;5.40;;;4.90;;
1062;SDS011;520;50.932;6.962;2023-02-28T19:50:30;7.50;;;5.80;;
1062;SDS011;520;50.932;6.962;2023-02-28T19:53:41;5.80;;;4.87;;
1062;SDS011;520;50.932;6.962;2023-02-28T19:57:07;7.40;;;4.90;;
1062;SDS011;520;50.932;6.962;2023-02-28T20:00:10;7.07;;;5.70;;
1062;SDS011;520;50.932;6.962;2023-02-28T20:07:20;8.17;;;6.63;;
1062;SDS011;520;50.932;6.962;2023-02-28T20:20:26;6.00;;;5.00;;
1062;SDS011;520;50.932;6.962;2023-02-28T20:23:14;13.10;;;5.50;;
1062;SDS011;520;50.932;6.962;2023-02-28T20:25:51;6.50;;;5.53;;
1062;SDS011;520;50.932;6.962;2023-02-28T20:28:41;8.30;;;5.53;;
1062;SDS011;520;50.932;6.962;2023-02-28T20:31:28;8.07;;;6.20;;
1062;SDS011;520;50.932;6.962;2023-02-28T20:34:03;9.27;;;6.67;;
1062;SDS011;520;50.932;6.962;2023-02-28T20:36:45;7.77;;;6.93;;
1062;SDS011;520;50.932;6.962;2023-02-28T20:39:27;9.70;;;6.83;;
1062;SDS011;520;50.932;6.962;2023-02-28T20:42:11;8.50;;;7.37;;
1062;SDS011;520;50.932;6.962;2023-02-28T20:45:02;7.70;;;6.90;;
1062;SDS011;520;50.932;6.962;2023-02-28T20:47:56;7.17;;;6.30;;
1062;SDS011;520;50.932;6.962;2023-02-28T20:50:39;8.60;;;6.70;;
1062;SDS011;520;50.932;6.962;2023-02-28T20:54:00;7.63;;;6.80;;
1062;SDS011;520;50.932;6.962;2023-02-28T20:56:37;7.50;;;6.60;;
1062;SDS011;520;50.932;6.962;2023-02-28T20:59:40;7.80;;;6.27;;
1062;SDS011;520;50.932;6.962;2023-02-28T21:02:35;8.30;;;6.80;;
1062;SDS011;520;50.932;6.962;2023-02-28T21:05:28;10.63;;;7.67;;
1062;SDS011;520;50.932;6.962;2023-02-28T21:08:15;9.70;;;6.80;;
1062;SDS011;520;50.932;6.962;2023-02-28T21:14:46;8.30;;;6.40;;
1062;SDS011;520;50.932;6.962;2023-02-28T21:17:35;6.07;;;5.63;;
1062;SDS011;520;50.932;6.962;2023-02-28T21:26:56;7.10;;;6.40;;
1062;SDS011;520;50.932;6.962;2023-02-28T21:29:52;6.87;;;5.97;;
1062;SDS011;520;50.932;6.962;2023-02-28T21:32:20;6.77;;;5.73;;
1062;SDS011;520;50.932;6.962;2023-02-28T21:35:05;7.53;;;6.73;;
1062;SDS011;520;50.932;6.962;2023-02-28T21:37:58;6.60;;;5.93;;
1062;SDS011;520;50.932;6.962;2023-02-28T21:40:30;9.30;;;6.00;;
1062;SDS011;520;50.932;6.962;2023-02-28T21:43:24;6.67;;;5.83;;
1062;SDS011;520;50.932;6.962;2023-02-28T21:46:16;8.83;;;5.80;;
1062;SDS011;520;50.932;6.962;2023-02-28T21:54:09;7.90;;;6.03;;
1062;SDS011;520;50.932;6.962;2023-02-28T21:56:57;9.37;;;6.37;;
1062;SDS011;520;50.932;6.962;2023-02-28T21:59:35;7.57;;;6.13;;
1062;SDS011;520;50.932;6.962;2023-02-28T22:02:10;7.90;;;6.00;;
1062;SDS011;520;50.932;6.962;2023-02-28T22:04:43;7.30;;;6.17;;
1062;SDS011;520;50.932;6.962;2023-02-28T22:28:49;6.10;;;4.90;;
1062;SDS011;520;50.932;6.962;2023-02-28T22:31:36;7.53;;;5.80;;
1062;SDS011;520;50.932;6.962;2023-02-28T22:42:12;10.00;;;5.93;;
1062;SDS011;520;50.932;6.962;2023-02-28T22:44:42;9.03;;;6.30;;
1062;SDS011;520;50.932;6.962;2023-02-28T22:50:17;7.13;;;6.40;;
1062;SDS011;520;50.932;6.962;2023-02-28T23:15:05;7.47;;;5.90;;
1062;SDS011;520;50.932;6.962;2023-02-28T23:44:08;6.17;;;5.37;;
1062;SDS011;520;50.932;6.962;2023-02-28T23:47:08;7.40;;;5.87;;
1062;SDS011;520;50.932;6.962;2023-02-28T23:49:52;6.63;;;6.03;;
1062;SDS011;520;50.932;6.962;2023-02-28T23:56:50;6.83;;;5.20;;
